This is the latest recevied weather packets stored in our database for station/object SQ5OUZ-1. If no packets are shown the sender has not sent any weather packets the latest 10 day(s).
| Time | Temp. | Humidity | Pressure | Rain* | Wind** | Luminosity | Snow |
|---|---|---|---|---|---|---|---|
| 1777465621 | 7.22° C | 38% | 1028.3 hPa | - | - | - | - |
| 1777464717 | 7.78° C | 37% | 1028.3 hPa | - | - | - | - |
| 1777463814 | 7.22° C | 37% | 1028.3 hPa | - | - | - | - |
| 1777462911 | 8.89° C | 35% | 1028.1 hPa | - | - | - | - |
| 1777462006 | 8.33° C | 34% | 1028.3 hPa | - | - | - | - |
| 1777461102 | 9.44° C | 30% | 1028.2 hPa | - | - | - | - |
| 1777460199 | 8.89° C | 31% | 1028.1 hPa | - | - | - | - |
| 1777459296 | 8.89° C | 31% | 1028 hPa | - | - | - | - |
| 1777458392 | 9.44° C | 31% | 1027.9 hPa | - | - | - | - |
| 1777457489 | 10.56° C | 28% | 1027.8 hPa | - | - | - | - |
| 1777456586 | 10° C | 30% | 1027.7 hPa | - | - | - | - |
| 1777455683 | 10.56° C | 29% | 1027.8 hPa | - | - | - | - |
| 1777454779 | 12.78° C | 25% | 1027.6 hPa | - | - | - | - |
| 1777453876 | 12.22° C | 28% | 1027.6 hPa | - | - | - | - |
| 1777452971 | 10° C | 31% | 1027.8 hPa | - | - | - | - |
| 1777452067 | 11.11° C | 30% | 1027.7 hPa | - | - | - | - |
| 1777451164 | 12.78° C | 28% | 1027.6 hPa | - | - | - | - |
| 1777450261 | 10° C | 31% | 1027.6 hPa | - | - | - | - |
| 1777449358 | 12.78° C | 28% | 1027.5 hPa | - | - | - | - |
| 1777448454 | 11.67° C | 28% | 1027.5 hPa | - | - | - | - |
| 1777447551 | 13.89° C | 26% | 1027.3 hPa | - | - | - | - |
| 1777446648 | 13.33° C | 28% | 1027.3 hPa | - | - | - | - |
| 1777445745 | 12.22° C | 31% | 1027.2 hPa | - | - | - | - |
| 1777444841 | 10.56° C | 34% | 1027.2 hPa | - | - | - | - |
| 1777443938 | 11.11° C | 34% | 1027.2 hPa | - | - | - | - |
* Rain since midnight (hover to see other rain measurements)
** Current wind speed in m/s (hover to see current wind gust speed)